sensor_id;sensor_type;location;lat;lon;timestamp;P1;durP1;ratioP1;P2;durP2;ratioP2
70406;SDS011;57821;52.202;0.154;2022-07-01T00:01:38;7.32;;;2.63;;
70406;SDS011;57821;52.202;0.154;2022-07-01T00:04:05;5.35;;;2.50;;
70406;SDS011;57821;52.202;0.154;2022-07-01T00:06:33;7.78;;;3.00;;
70406;SDS011;57821;52.202;0.154;2022-07-01T00:08:59;9.10;;;2.70;;
70406;SDS011;57821;52.202;0.154;2022-07-01T00:11:27;5.72;;;2.47;;
70406;SDS011;57821;52.202;0.154;2022-07-01T00:13:54;9.27;;;3.10;;
70406;SDS011;57821;52.202;0.154;2022-07-01T00:16:20;8.05;;;2.90;;
70406;SDS011;57821;52.202;0.154;2022-07-01T00:18:47;7.05;;;2.95;;
70406;SDS011;57821;52.202;0.154;2022-07-01T00:21:14;6.53;;;2.85;;
70406;SDS011;57821;52.202;0.154;2022-07-01T00:23:41;8.20;;;2.88;;
70406;SDS011;57821;52.202;0.154;2022-07-01T00:26:08;7.68;;;2.67;;
70406;SDS011;57821;52.202;0.154;2022-07-01T00:28:35;7.90;;;2.78;;
70406;SDS011;57821;52.202;0.154;2022-07-01T00:31:01;6.03;;;2.67;;
70406;SDS011;57821;52.202;0.154;2022-07-01T00:33:28;8.18;;;3.78;;
70406;SDS011;57821;52.202;0.154;2022-07-01T00:35:55;8.50;;;2.60;;
70406;SDS011;57821;52.202;0.154;2022-07-01T00:38:21;7.57;;;2.80;;
70406;SDS011;57821;52.202;0.154;2022-07-01T00:40:52;7.90;;;3.30;;
70406;SDS011;57821;52.202;0.154;2022-07-01T00:43:19;7.72;;;3.03;;
70406;SDS011;57821;52.202;0.154;2022-07-01T00:45:58;7.97;;;3.25;;
70406;SDS011;57821;52.202;0.154;2022-07-01T00:48:25;6.68;;;3.17;;
70406;SDS011;57821;52.202;0.154;2022-07-01T00:50:51;8.60;;;2.70;;
70406;SDS011;57821;52.202;0.154;2022-07-01T00:53:18;8.63;;;3.30;;
70406;SDS011;57821;52.202;0.154;2022-07-01T00:55:45;6.93;;;2.88;;
70406;SDS011;57821;52.202;0.154;2022-07-01T00:58:11;7.80;;;3.10;;
70406;SDS011;57821;52.202;0.154;2022-07-01T01:00:38;7.60;;;2.97;;
70406;SDS011;57821;52.202;0.154;2022-07-01T01:03:05;5.43;;;2.50;;
70406;SDS011;57821;52.202;0.154;2022-07-01T01:05:33;6.22;;;2.75;;
70406;SDS011;57821;52.202;0.154;2022-07-01T01:08:00;7.80;;;3.22;;
70406;SDS011;57821;52.202;0.154;2022-07-01T01:10:26;7.80;;;3.30;;
70406;SDS011;57821;52.202;0.154;2022-07-01T01:12:54;7.25;;;3.40;;
70406;SDS011;57821;52.202;0.154;2022-07-01T01:15:22;8.27;;;3.03;;
70406;SDS011;57821;52.202;0.154;2022-07-01T01:17:49;8.52;;;3.15;;
70406;SDS011;57821;52.202;0.154;2022-07-01T01:20:16;7.40;;;2.70;;
70406;SDS011;57821;52.202;0.154;2022-07-01T01:22:44;7.88;;;2.88;;
70406;SDS011;57821;52.202;0.154;2022-07-01T01:25:11;6.47;;;2.40;;
70406;SDS011;57821;52.202;0.154;2022-07-01T01:27:38;8.93;;;2.70;;
70406;SDS011;57821;52.202;0.154;2022-07-01T01:30:05;6.47;;;2.60;;
70406;SDS011;57821;52.202;0.154;2022-07-01T01:32:33;6.35;;;2.65;;
70406;SDS011;57821;52.202;0.154;2022-07-01T01:35:00;7.60;;;2.42;;
70406;SDS011;57821;52.202;0.154;2022-07-01T01:37:27;6.47;;;2.22;;
70406;SDS011;57821;52.202;0.154;2022-07-01T01:39:54;5.60;;;2.50;;
70406;SDS011;57821;52.202;0.154;2022-07-01T01:42:21;10.95;;;2.80;;
70406;SDS011;57821;52.202;0.154;2022-07-01T01:44:47;8.13;;;2.35;;
70406;SDS011;57821;52.202;0.154;2022-07-01T01:47:14;6.25;;;2.47;;
70406;SDS011;57821;52.202;0.154;2022-07-01T01:49:40;10.80;;;2.30;;
70406;SDS011;57821;52.202;0.154;2022-07-01T01:52:07;7.88;;;2.53;;
70406;SDS011;57821;52.202;0.154;2022-07-01T01:54:33;7.57;;;2.63;;
70406;SDS011;57821;52.202;0.154;2022-07-01T01:57:00;8.25;;;2.78;;
70406;SDS011;57821;52.202;0.154;2022-07-01T01:59:27;9.80;;;2.15;;
70406;SDS011;57821;52.202;0.154;2022-07-01T02:01:53;10.73;;;2.45;;
70406;SDS011;57821;52.202;0.154;2022-07-01T02:04:20;6.22;;;2.50;;
70406;SDS011;57821;52.202;0.154;2022-07-01T02:06:47;7.55;;;2.25;;
70406;SDS011;57821;52.202;0.154;2022-07-01T02:09:13;10.85;;;2.20;;
70406;SDS011;57821;52.202;0.154;2022-07-01T02:11:40;7.13;;;2.10;;
70406;SDS011;57821;52.202;0.154;2022-07-01T02:14:06;7.32;;;2.00;;
70406;SDS011;57821;52.202;0.154;2022-07-01T02:16:33;9.35;;;2.40;;
70406;SDS011;57821;52.202;0.154;2022-07-01T02:19:00;7.75;;;2.50;;
70406;SDS011;57821;52.202;0.154;2022-07-01T02:21:26;9.60;;;2.45;;
70406;SDS011;57821;52.202;0.154;2022-07-01T02:23:53;8.18;;;2.28;;
70406;SDS011;57821;52.202;0.154;2022-07-01T02:26:19;7.80;;;2.50;;
70406;SDS011;57821;52.202;0.154;2022-07-01T02:28:46;8.68;;;2.40;;
70406;SDS011;57821;52.202;0.154;2022-07-01T02:31:13;8.90;;;2.10;;
70406;SDS011;57821;52.202;0.154;2022-07-01T02:33:39;8.75;;;2.83;;
70406;SDS011;57821;52.202;0.154;2022-07-01T02:36:06;7.32;;;2.53;;
70406;SDS011;57821;52.202;0.154;2022-07-01T02:38:32;7.80;;;2.72;;
70406;SDS011;57821;52.202;0.154;2022-07-01T02:40:59;7.57;;;2.22;;
70406;SDS011;57821;52.202;0.154;2022-07-01T02:43:25;6.85;;;2.60;;
70406;SDS011;57821;52.202;0.154;2022-07-01T02:45:52;8.60;;;3.20;;
70406;SDS011;57821;52.202;0.154;2022-07-01T02:48:18;8.85;;;3.45;;
70406;SDS011;57821;52.202;0.154;2022-07-01T02:50:45;8.60;;;3.10;;
70406;SDS011;57821;52.202;0.154;2022-07-01T02:53:12;11.35;;;2.90;;
70406;SDS011;57821;52.202;0.154;2022-07-01T02:55:38;10.30;;;3.15;;
70406;SDS011;57821;52.202;0.154;2022-07-01T02:58:05;9.27;;;2.90;;
70406;SDS011;57821;52.202;0.154;2022-07-01T03:00:31;11.32;;;3.00;;
70406;SDS011;57821;52.202;0.154;2022-07-01T03:02:58;9.93;;;3.55;;
70406;SDS011;57821;52.202;0.154;2022-07-01T03:05:24;11.38;;;2.58;;
70406;SDS011;57821;52.202;0.154;2022-07-01T03:07:51;11.00;;;2.83;;
70406;SDS011;57821;52.202;0.154;2022-07-01T03:10:18;12.15;;;3.10;;
70406;SDS011;57821;52.202;0.154;2022-07-01T03:12:44;8.00;;;3.55;;
70406;SDS011;57821;52.202;0.154;2022-07-01T03:15:11;8.38;;;2.83;;
70406;SDS011;57821;52.202;0.154;2022-07-01T03:17:41;9.50;;;2.83;;
70406;SDS011;57821;52.202;0.154;2022-07-01T03:20:10;9.00;;;2.92;;
70406;SDS011;57821;52.202;0.154;2022-07-01T03:22:42;8.75;;;2.78;;
70406;SDS011;57821;52.202;0.154;2022-07-01T03:25:10;11.85;;;2.30;;
70406;SDS011;57821;52.202;0.154;2022-07-01T03:27:36;8.85;;;2.22;;
70406;SDS011;57821;52.202;0.154;2022-07-01T03:30:04;9.35;;;2.80;;
70406;SDS011;57821;52.202;0.154;2022-07-01T03:32:32;6.95;;;2.40;;
70406;SDS011;57821;52.202;0.154;2022-07-01T03:34:59;9.73;;;2.60;;
70406;SDS011;57821;52.202;0.154;2022-07-01T03:37:26;6.68;;;2.47;;
70406;SDS011;57821;52.202;0.154;2022-07-01T03:39:52;8.98;;;2.63;;
70406;SDS011;57821;52.202;0.154;2022-07-01T03:42:19;10.35;;;2.58;;
70406;SDS011;57821;52.202;0.154;2022-07-01T03:44:45;8.60;;;2.42;;
70406;SDS011;57821;52.202;0.154;2022-07-01T03:47:12;9.30;;;2.58;;
70406;SDS011;57821;52.202;0.154;2022-07-01T03:49:38;10.55;;;2.50;;
70406;SDS011;57821;52.202;0.154;2022-07-01T03:52:05;10.40;;;2.55;;
70406;SDS011;57821;52.202;0.154;2022-07-01T03:54:32;9.45;;;2.50;;
70406;SDS011;57821;52.202;0.154;2022-07-01T03:57:03;7.57;;;2.53;;
70406;SDS011;57821;52.202;0.154;2022-07-01T03:59:32;10.23;;;2.80;;
70406;SDS011;57821;52.202;0.154;2022-07-01T04:02:02;8.68;;;2.42;;
70406;SDS011;57821;52.202;0.154;2022-07-01T04:04:29;10.85;;;2.80;;
70406;SDS011;57821;52.202;0.154;2022-07-01T04:06:59;10.20;;;3.30;;
70406;SDS011;57821;52.202;0.154;2022-07-01T04:09:27;9.43;;;2.40;;
70406;SDS011;57821;52.202;0.154;2022-07-01T04:11:55;12.10;;;3.13;;
70406;SDS011;57821;52.202;0.154;2022-07-01T04:14:22;8.20;;;2.60;;
70406;SDS011;57821;52.202;0.154;2022-07-01T04:16:49;10.15;;;3.10;;
70406;SDS011;57821;52.202;0.154;2022-07-01T04:19:16;12.85;;;2.88;;
70406;SDS011;57821;52.202;0.154;2022-07-01T04:21:43;11.85;;;3.28;;
70406;SDS011;57821;52.202;0.154;2022-07-01T04:24:10;10.02;;;2.85;;
70406;SDS011;57821;52.202;0.154;2022-07-01T04:26:37;8.35;;;2.95;;
70406;SDS011;57821;52.202;0.154;2022-07-01T04:29:04;11.13;;;3.15;;
70406;SDS011;57821;52.202;0.154;2022-07-01T04:31:31;8.65;;;3.25;;
70406;SDS011;57821;52.202;0.154;2022-07-01T04:33:58;11.40;;;3.70;;
70406;SDS011;57821;52.202;0.154;2022-07-01T04:36:24;15.27;;;3.95;;
70406;SDS011;57821;52.202;0.154;2022-07-01T04:38:52;20.95;;;4.65;;
70406;SDS011;57821;52.202;0.154;2022-07-01T04:41:19;16.73;;;4.10;;
70406;SDS011;57821;52.202;0.154;2022-07-01T04:43:45;15.32;;;4.50;;
70406;SDS011;57821;52.202;0.154;2022-07-01T04:46:12;16.33;;;4.00;;
70406;SDS011;57821;52.202;0.154;2022-07-01T04:48:39;11.95;;;3.83;;
70406;SDS011;57821;52.202;0.154;2022-07-01T04:51:05;15.90;;;4.57;;
70406;SDS011;57821;52.202;0.154;2022-07-01T04:53:32;16.27;;;4.72;;
70406;SDS011;57821;52.202;0.154;2022-07-01T04:55:59;9.45;;;4.43;;
70406;SDS011;57821;52.202;0.154;2022-07-01T04:58:26;14.07;;;4.93;;
70406;SDS011;57821;52.202;0.154;2022-07-01T05:00:52;12.70;;;5.07;;
70406;SDS011;57821;52.202;0.154;2022-07-01T05:03:19;14.93;;;4.30;;
70406;SDS011;57821;52.202;0.154;2022-07-01T05:05:46;12.35;;;5.25;;
70406;SDS011;57821;52.202;0.154;2022-07-01T05:08:12;13.18;;;4.78;;
70406;SDS011;57821;52.202;0.154;2022-07-01T05:10:39;13.15;;;4.57;;
70406;SDS011;57821;52.202;0.154;2022-07-01T05:13:05;14.07;;;4.75;;
70406;SDS011;57821;52.202;0.154;2022-07-01T05:15:32;11.55;;;5.00;;
70406;SDS011;57821;52.202;0.154;2022-07-01T05:17:58;14.05;;;5.05;;
70406;SDS011;57821;52.202;0.154;2022-07-01T05:20:25;16.85;;;5.18;;
70406;SDS011;57821;52.202;0.154;2022-07-01T05:22:51;18.30;;;6.32;;
70406;SDS011;57821;52.202;0.154;2022-07-01T05:25:18;15.20;;;5.30;;
70406;SDS011;57821;52.202;0.154;2022-07-01T05:27:44;11.93;;;5.32;;
70406;SDS011;57821;52.202;0.154;2022-07-01T05:30:11;14.32;;;5.70;;
70406;SDS011;57821;52.202;0.154;2022-07-01T05:32:38;14.48;;;5.28;;
70406;SDS011;57821;52.202;0.154;2022-07-01T05:35:05;11.55;;;5.40;;
70406;SDS011;57821;52.202;0.154;2022-07-01T05:37:32;15.10;;;5.25;;
70406;SDS011;57821;52.202;0.154;2022-07-01T05:39:58;14.90;;;5.68;;
70406;SDS011;57821;52.202;0.154;2022-07-01T05:42:25;16.70;;;5.65;;
70406;SDS011;57821;52.202;0.154;2022-07-01T05:44:51;10.85;;;6.15;;
70406;SDS011;57821;52.202;0.154;2022-07-01T05:47:18;15.88;;;5.80;;
70406;SDS011;57821;52.202;0.154;2022-07-01T05:49:44;14.02;;;5.47;;
70406;SDS011;57821;52.202;0.154;2022-07-01T05:52:11;13.48;;;5.63;;
70406;SDS011;57821;52.202;0.154;2022-07-01T05:54:37;20.17;;;5.80;;
70406;SDS011;57821;52.202;0.154;2022-07-01T05:57:04;13.90;;;5.10;;
70406;SDS011;57821;52.202;0.154;2022-07-01T05:59:35;11.60;;;5.35;;
70406;SDS011;57821;52.202;0.154;2022-07-01T06:02:01;11.10;;;5.53;;
70406;SDS011;57821;52.202;0.154;2022-07-01T06:04:28;13.20;;;5.80;;
70406;SDS011;57821;52.202;0.154;2022-07-01T06:06:55;16.33;;;5.70;;
70406;SDS011;57821;52.202;0.154;2022-07-01T06:09:21;13.43;;;5.13;;
70406;SDS011;57821;52.202;0.154;2022-07-01T06:11:48;11.00;;;5.35;;
70406;SDS011;57821;52.202;0.154;2022-07-01T06:14:14;15.60;;;5.90;;
70406;SDS011;57821;52.202;0.154;2022-07-01T06:16:41;13.65;;;5.20;;
70406;SDS011;57821;52.202;0.154;2022-07-01T06:19:08;11.52;;;5.28;;
70406;SDS011;57821;52.202;0.154;2022-07-01T06:21:34;16.38;;;5.53;;
70406;SDS011;57821;52.202;0.154;2022-07-01T06:24:01;12.30;;;5.70;;
70406;SDS011;57821;52.202;0.154;2022-07-01T06:26:27;10.07;;;5.10;;
70406;SDS011;57821;52.202;0.154;2022-07-01T06:28:54;16.00;;;7.97;;
70406;SDS011;57821;52.202;0.154;2022-07-01T06:31:20;15.38;;;6.30;;
70406;SDS011;57821;52.202;0.154;2022-07-01T06:33:47;11.23;;;5.57;;
70406;SDS011;57821;52.202;0.154;2022-07-01T06:36:14;11.88;;;6.15;;
70406;SDS011;57821;52.202;0.154;2022-07-01T06:38:40;10.32;;;5.28;;
70406;SDS011;57821;52.202;0.154;2022-07-01T06:41:07;14.27;;;5.68;;
70406;SDS011;57821;52.202;0.154;2022-07-01T06:43:33;11.07;;;5.93;;
70406;SDS011;57821;52.202;0.154;2022-07-01T06:46:01;12.40;;;6.00;;
70406;SDS011;57821;52.202;0.154;2022-07-01T06:48:28;12.20;;;5.82;;
70406;SDS011;57821;52.202;0.154;2022-07-01T06:50:55;16.15;;;5.75;;
70406;SDS011;57821;52.202;0.154;2022-07-01T06:53:21;14.63;;;5.72;;
70406;SDS011;57821;52.202;0.154;2022-07-01T06:55:48;12.45;;;5.78;;
70406;SDS011;57821;52.202;0.154;2022-07-01T06:58:17;13.23;;;5.65;;
70406;SDS011;57821;52.202;0.154;2022-07-01T07:00:43;11.13;;;5.28;;
70406;SDS011;57821;52.202;0.154;2022-07-01T07:03:10;11.48;;;5.38;;
70406;SDS011;57821;52.202;0.154;2022-07-01T07:05:37;8.98;;;5.07;;
70406;SDS011;57821;52.202;0.154;2022-07-01T07:08:03;11.45;;;5.25;;
70406;SDS011;57821;52.202;0.154;2022-07-01T07:10:30;12.70;;;5.20;;
70406;SDS011;57821;52.202;0.154;2022-07-01T07:12:57;9.50;;;4.53;;
70406;SDS011;57821;52.202;0.154;2022-07-01T07:15:23;9.35;;;4.68;;
70406;SDS011;57821;52.202;0.154;2022-07-01T07:17:51;10.52;;;4.55;;
70406;SDS011;57821;52.202;0.154;2022-07-01T07:20:17;8.10;;;4.60;;
70406;SDS011;57821;52.202;0.154;2022-07-01T07:22:44;9.63;;;4.10;;
70406;SDS011;57821;52.202;0.154;2022-07-01T07:25:10;9.05;;;4.10;;
70406;SDS011;57821;52.202;0.154;2022-07-01T07:27:37;7.50;;;3.78;;
70406;SDS011;57821;52.202;0.154;2022-07-01T07:30:03;6.25;;;2.75;;
70406;SDS011;57821;52.202;0.154;2022-07-01T07:32:30;7.20;;;2.92;;
70406;SDS011;57821;52.202;0.154;2022-07-01T07:34:57;5.38;;;2.78;;
70406;SDS011;57821;52.202;0.154;2022-07-01T07:37:23;9.27;;;3.13;;
70406;SDS011;57821;52.202;0.154;2022-07-01T07:39:50;7.70;;;2.90;;
70406;SDS011;57821;52.202;0.154;2022-07-01T07:42:16;8.50;;;3.05;;
70406;SDS011;57821;52.202;0.154;2022-07-01T07:44:43;6.00;;;2.80;;
70406;SDS011;57821;52.202;0.154;2022-07-01T07:47:10;8.25;;;3.55;;
70406;SDS011;57821;52.202;0.154;2022-07-01T07:49:37;11.55;;;4.07;;
70406;SDS011;57821;52.202;0.154;2022-07-01T07:52:03;7.30;;;3.05;;
70406;SDS011;57821;52.202;0.154;2022-07-01T07:54:30;10.25;;;2.97;;
70406;SDS011;57821;52.202;0.154;2022-07-01T07:56:56;8.40;;;3.30;;
70406;SDS011;57821;52.202;0.154;2022-07-01T07:59:23;7.60;;;3.00;;
70406;SDS011;57821;52.202;0.154;2022-07-01T08:01:49;10.95;;;2.92;;
70406;SDS011;57821;52.202;0.154;2022-07-01T08:04:16;6.25;;;2.92;;
70406;SDS011;57821;52.202;0.154;2022-07-01T08:06:43;9.02;;;3.20;;
70406;SDS011;57821;52.202;0.154;2022-07-01T08:09:09;7.53;;;2.95;;
70406;SDS011;57821;52.202;0.154;2022-07-01T08:11:36;6.25;;;2.90;;
70406;SDS011;57821;52.202;0.154;2022-07-01T08:14:02;7.78;;;3.10;;
70406;SDS011;57821;52.202;0.154;2022-07-01T08:16:29;7.32;;;2.70;;
70406;SDS011;57821;52.202;0.154;2022-07-01T08:18:56;6.65;;;2.10;;
70406;SDS011;57821;52.202;0.154;2022-07-01T08:21:23;7.60;;;2.17;;
70406;SDS011;57821;52.202;0.154;2022-07-01T08:23:49;9.43;;;2.45;;
70406;SDS011;57821;52.202;0.154;2022-07-01T08:26:16;6.25;;;2.10;;
70406;SDS011;57821;52.202;0.154;2022-07-01T08:28:43;4.30;;;2.28;;
70406;SDS011;57821;52.202;0.154;2022-07-01T08:31:10;7.50;;;2.00;;
70406;SDS011;57821;52.202;0.154;2022-07-01T08:33:36;6.63;;;1.55;;
70406;SDS011;57821;52.202;0.154;2022-07-01T08:36:07;4.72;;;1.52;;
70406;SDS011;57821;52.202;0.154;2022-07-01T08:38:35;5.82;;;1.50;;
70406;SDS011;57821;52.202;0.154;2022-07-01T08:41:02;7.72;;;1.70;;
70406;SDS011;57821;52.202;0.154;2022-07-01T08:43:29;10.63;;;2.10;;
70406;SDS011;57821;52.202;0.154;2022-07-01T08:45:57;4.97;;;1.98;;
70406;SDS011;57821;52.202;0.154;2022-07-01T08:48:25;4.13;;;1.50;;
70406;SDS011;57821;52.202;0.154;2022-07-01T08:50:52;5.20;;;1.80;;
70406;SDS011;57821;52.202;0.154;2022-07-01T08:53:18;4.75;;;1.77;;
70406;SDS011;57821;52.202;0.154;2022-07-01T08:55:45;4.82;;;2.00;;
70406;SDS011;57821;52.202;0.154;2022-07-01T08:58:18;4.97;;;1.90;;
70406;SDS011;57821;52.202;0.154;2022-07-01T09:00:44;4.68;;;1.60;;
70406;SDS011;57821;52.202;0.154;2022-07-01T09:03:11;3.30;;;1.10;;
70406;SDS011;57821;52.202;0.154;2022-07-01T09:05:38;4.70;;;1.30;;
70406;SDS011;57821;52.202;0.154;2022-07-01T09:08:05;4.05;;;1.20;;
70406;SDS011;57821;52.202;0.154;2022-07-01T09:10:32;4.70;;;1.50;;
70406;SDS011;57821;52.202;0.154;2022-07-01T09:13:06;3.53;;;1.13;;
70406;SDS011;57821;52.202;0.154;2022-07-01T09:15:35;3.60;;;1.30;;
70406;SDS011;57821;52.202;0.154;2022-07-01T09:18:03;5.63;;;1.45;;
70406;SDS011;57821;52.202;0.154;2022-07-01T09:20:33;4.90;;;1.20;;
70406;SDS011;57821;52.202;0.154;2022-07-01T09:23:01;3.78;;;1.35;;
70406;SDS011;57821;52.202;0.154;2022-07-01T09:25:35;4.82;;;1.23;;
70406;SDS011;57821;52.202;0.154;2022-07-01T09:28:13;5.50;;;1.90;;
70406;SDS011;57821;52.202;0.154;2022-07-01T09:30:42;7.10;;;1.63;;
70406;SDS011;57821;52.202;0.154;2022-07-01T09:35:38;4.97;;;1.50;;
70406;SDS011;57821;52.202;0.154;2022-07-01T09:38:05;3.25;;;1.17;;
70406;SDS011;57821;52.202;0.154;2022-07-01T09:40:44;3.78;;;1.10;;
70406;SDS011;57821;52.202;0.154;2022-07-01T09:43:16;10.35;;;2.20;;
70406;SDS011;57821;52.202;0.154;2022-07-01T09:45:50;4.10;;;1.05;;
70406;SDS011;57821;52.202;0.154;2022-07-01T09:48:20;3.72;;;1.10;;
70406;SDS011;57821;52.202;0.154;2022-07-01T09:50:48;4.18;;;1.20;;
70406;SDS011;57821;52.202;0.154;2022-07-01T09:53:15;3.30;;;1.08;;
70406;SDS011;57821;52.202;0.154;2022-07-01T09:55:42;4.20;;;1.17;;
70406;SDS011;57821;52.202;0.154;2022-07-01T09:58:08;3.92;;;1.08;;
70406;SDS011;57821;52.202;0.154;2022-07-01T10:00:36;6.55;;;1.48;;
70406;SDS011;57821;52.202;0.154;2022-07-01T10:03:04;19.52;;;2.15;;
70406;SDS011;57821;52.202;0.154;2022-07-01T10:05:32;4.03;;;0.82;;
70406;SDS011;57821;52.202;0.154;2022-07-01T10:08:14;4.28;;;0.90;;
70406;SDS011;57821;52.202;0.154;2022-07-01T10:11:26;2.10;;;0.60;;
70406;SDS011;57821;52.202;0.154;2022-07-01T10:14:18;4.65;;;0.95;;
70406;SDS011;57821;52.202;0.154;2022-07-01T10:16:47;4.32;;;0.85;;
70406;SDS011;57821;52.202;0.154;2022-07-01T10:21:46;4.18;;;1.10;;
70406;SDS011;57821;52.202;0.154;2022-07-01T10:24:14;3.80;;;0.93;;
70406;SDS011;57821;52.202;0.154;2022-07-01T10:26:42;3.35;;;0.60;;
70406;SDS011;57821;52.202;0.154;2022-07-01T10:31:54;2.50;;;0.55;;
70406;SDS011;57821;52.202;0.154;2022-07-01T10:34:25;3.58;;;0.80;;
70406;SDS011;57821;52.202;0.154;2022-07-01T10:37:00;3.05;;;0.95;;
70406;SDS011;57821;52.202;0.154;2022-07-01T10:39:28;2.88;;;0.85;;
70406;SDS011;57821;52.202;0.154;2022-07-01T10:41:56;2.80;;;0.60;;
70406;SDS011;57821;52.202;0.154;2022-07-01T10:45:00;2.30;;;0.60;;
70406;SDS011;57821;52.202;0.154;2022-07-01T10:47:27;3.22;;;0.70;;
70406;SDS011;57821;52.202;0.154;2022-07-01T10:49:57;2.60;;;0.63;;
70406;SDS011;57821;52.202;0.154;2022-07-01T10:52:26;4.65;;;0.77;;
70406;SDS011;57821;52.202;0.154;2022-07-01T10:54:53;5.05;;;1.50;;
70406;SDS011;57821;52.202;0.154;2022-07-01T10:57:22;3.05;;;0.85;;
70406;SDS011;57821;52.202;0.154;2022-07-01T10:59:53;2.45;;;0.50;;
70406;SDS011;57821;52.202;0.154;2022-07-01T11:02:42;2.58;;;0.80;;
70406;SDS011;57821;52.202;0.154;2022-07-01T11:05:10;3.35;;;0.88;;
70406;SDS011;57821;52.202;0.154;2022-07-01T11:07:42;4.07;;;0.90;;
70406;SDS011;57821;52.202;0.154;2022-07-01T11:10:10;3.47;;;0.60;;
70406;SDS011;57821;52.202;0.154;2022-07-01T11:12:38;3.65;;;0.88;;
70406;SDS011;57821;52.202;0.154;2022-07-01T11:15:06;4.35;;;0.80;;
70406;SDS011;57821;52.202;0.154;2022-07-01T11:17:33;3.58;;;0.80;;
70406;SDS011;57821;52.202;0.154;2022-07-01T11:20:01;2.90;;;0.70;;
70406;SDS011;57821;52.202;0.154;2022-07-01T11:22:29;3.90;;;0.98;;
70406;SDS011;57821;52.202;0.154;2022-07-01T11:27:30;3.33;;;0.85;;
70406;SDS011;57821;52.202;0.154;2022-07-01T11:29:59;4.40;;;0.98;;
70406;SDS011;57821;52.202;0.154;2022-07-01T11:32:29;3.50;;;0.80;;
70406;SDS011;57821;52.202;0.154;2022-07-01T11:34:57;2.78;;;0.70;;
70406;SDS011;57821;52.202;0.154;2022-07-01T11:37:26;3.83;;;0.90;;
70406;SDS011;57821;52.202;0.154;2022-07-01T11:40:10;3.13;;;0.73;;
70406;SDS011;57821;52.202;0.154;2022-07-01T11:42:39;3.80;;;0.82;;
70406;SDS011;57821;52.202;0.154;2022-07-01T11:45:24;3.85;;;0.80;;
70406;SDS011;57821;52.202;0.154;2022-07-01T11:47:52;3.03;;;0.90;;
70406;SDS011;57821;52.202;0.154;2022-07-01T11:50:19;3.15;;;0.85;;
70406;SDS011;57821;52.202;0.154;2022-07-01T11:52:46;2.78;;;0.88;;
70406;SDS011;57821;52.202;0.154;2022-07-01T11:55:13;3.05;;;0.75;;
70406;SDS011;57821;52.202;0.154;2022-07-01T11:57:59;4.15;;;0.90;;
70406;SDS011;57821;52.202;0.154;2022-07-01T12:00:31;4.22;;;0.90;;
70406;SDS011;57821;52.202;0.154;2022-07-01T12:02:59;3.30;;;0.65;;
70406;SDS011;57821;52.202;0.154;2022-07-01T12:05:25;3.53;;;0.80;;
70406;SDS011;57821;52.202;0.154;2022-07-01T12:07:52;5.80;;;1.25;;
70406;SDS011;57821;52.202;0.154;2022-07-01T12:10:23;8.43;;;1.13;;
70406;SDS011;57821;52.202;0.154;2022-07-01T12:12:53;3.13;;;0.95;;
70406;SDS011;57821;52.202;0.154;2022-07-01T12:15:19;2.72;;;0.70;;
70406;SDS011;57821;52.202;0.154;2022-07-01T12:17:46;5.15;;;0.80;;
70406;SDS011;57821;52.202;0.154;2022-07-01T12:20:13;5.68;;;0.85;;
70406;SDS011;57821;52.202;0.154;2022-07-01T12:22:40;4.85;;;1.10;;
70406;SDS011;57821;52.202;0.154;2022-07-01T12:25:08;5.18;;;1.45;;
70406;SDS011;57821;52.202;0.154;2022-07-01T12:27:36;3.00;;;0.77;;
70406;SDS011;57821;52.202;0.154;2022-07-01T12:30:04;3.55;;;0.80;;
70406;SDS011;57821;52.202;0.154;2022-07-01T12:32:37;3.80;;;0.77;;
70406;SDS011;57821;52.202;0.154;2022-07-01T12:35:05;5.07;;;1.10;;
70406;SDS011;57821;52.202;0.154;2022-07-01T12:37:36;3.45;;;0.70;;
70406;SDS011;57821;52.202;0.154;2022-07-01T12:40:22;3.30;;;1.05;;
70406;SDS011;57821;52.202;0.154;2022-07-01T12:42:50;2.50;;;0.70;;
70406;SDS011;57821;52.202;0.154;2022-07-01T12:45:22;4.32;;;0.90;;
70406;SDS011;57821;52.202;0.154;2022-07-01T12:47:51;3.63;;;1.02;;
70406;SDS011;57821;52.202;0.154;2022-07-01T12:50:27;4.55;;;1.00;;
70406;SDS011;57821;52.202;0.154;2022-07-01T12:52:56;3.95;;;0.93;;
70406;SDS011;57821;52.202;0.154;2022-07-01T12:55:31;3.42;;;0.70;;
70406;SDS011;57821;52.202;0.154;2022-07-01T12:57:59;3.80;;;1.00;;
70406;SDS011;57821;52.202;0.154;2022-07-01T13:00:27;3.35;;;0.70;;
70406;SDS011;57821;52.202;0.154;2022-07-01T13:02:56;4.22;;;0.90;;
70406;SDS011;57821;52.202;0.154;2022-07-01T13:05:24;3.15;;;0.68;;
70406;SDS011;57821;52.202;0.154;2022-07-01T13:07:51;6.30;;;0.85;;
70406;SDS011;57821;52.202;0.154;2022-07-01T13:10:18;4.10;;;0.85;;
70406;SDS011;57821;52.202;0.154;2022-07-01T13:12:46;4.88;;;1.70;;
70406;SDS011;57821;52.202;0.154;2022-07-01T13:15:14;2.95;;;0.93;;
70406;SDS011;57821;52.202;0.154;2022-07-01T13:17:42;4.45;;;0.75;;
70406;SDS011;57821;52.202;0.154;2022-07-01T13:20:09;4.18;;;0.88;;
70406;SDS011;57821;52.202;0.154;2022-07-01T13:22:36;4.57;;;0.90;;
70406;SDS011;57821;52.202;0.154;2022-07-01T13:25:03;4.70;;;1.00;;
70406;SDS011;57821;52.202;0.154;2022-07-01T13:27:30;5.88;;;1.50;;
70406;SDS011;57821;52.202;0.154;2022-07-01T13:29:57;6.72;;;0.90;;
70406;SDS011;57821;52.202;0.154;2022-07-01T13:32:23;4.05;;;0.95;;
70406;SDS011;57821;52.202;0.154;2022-07-01T13:34:50;4.00;;;1.05;;
70406;SDS011;57821;52.202;0.154;2022-07-01T13:37:17;5.93;;;1.23;;
70406;SDS011;57821;52.202;0.154;2022-07-01T13:39:43;5.88;;;1.23;;
70406;SDS011;57821;52.202;0.154;2022-07-01T13:42:10;4.78;;;1.50;;
70406;SDS011;57821;52.202;0.154;2022-07-01T13:44:37;6.78;;;1.27;;
70406;SDS011;57821;52.202;0.154;2022-07-01T13:47:03;4.78;;;1.23;;
70406;SDS011;57821;52.202;0.154;2022-07-01T13:49:30;8.00;;;1.40;;
70406;SDS011;57821;52.202;0.154;2022-07-01T13:51:57;6.40;;;1.55;;
70406;SDS011;57821;52.202;0.154;2022-07-01T13:54:23;5.95;;;1.65;;
70406;SDS011;57821;52.202;0.154;2022-07-01T13:56:50;5.22;;;1.58;;
70406;SDS011;57821;52.202;0.154;2022-07-01T13:59:16;4.40;;;1.70;;
70406;SDS011;57821;52.202;0.154;2022-07-01T14:01:43;4.57;;;1.40;;
70406;SDS011;57821;52.202;0.154;2022-07-01T14:04:09;6.90;;;1.92;;
70406;SDS011;57821;52.202;0.154;2022-07-01T14:06:36;5.40;;;1.48;;
70406;SDS011;57821;52.202;0.154;2022-07-01T14:09:03;5.40;;;1.58;;
70406;SDS011;57821;52.202;0.154;2022-07-01T14:11:29;5.22;;;1.23;;
70406;SDS011;57821;52.202;0.154;2022-07-01T14:13:56;5.93;;;1.30;;
70406;SDS011;57821;52.202;0.154;2022-07-01T14:16:23;5.60;;;1.33;;
70406;SDS011;57821;52.202;0.154;2022-07-01T14:18:49;7.25;;;1.52;;
70406;SDS011;57821;52.202;0.154;2022-07-01T14:21:17;7.20;;;1.23;;
70406;SDS011;57821;52.202;0.154;2022-07-01T14:23:44;5.10;;;1.38;;
70406;SDS011;57821;52.202;0.154;2022-07-01T14:26:11;4.38;;;1.05;;
70406;SDS011;57821;52.202;0.154;2022-07-01T14:28:37;4.28;;;0.93;;
70406;SDS011;57821;52.202;0.154;2022-07-01T14:31:04;5.05;;;0.90;;
70406;SDS011;57821;52.202;0.154;2022-07-01T14:33:30;3.28;;;0.80;;
70406;SDS011;57821;52.202;0.154;2022-07-01T14:35:57;4.85;;;0.90;;
70406;SDS011;57821;52.202;0.154;2022-07-01T14:38:24;4.18;;;0.85;;
70406;SDS011;57821;52.202;0.154;2022-07-01T14:40:51;4.85;;;1.20;;
70406;SDS011;57821;52.202;0.154;2022-07-01T14:43:18;5.63;;;1.70;;
70406;SDS011;57821;52.202;0.154;2022-07-01T14:45:45;3.35;;;0.90;;
70406;SDS011;57821;52.202;0.154;2022-07-01T14:48:11;4.32;;;1.30;;
70406;SDS011;57821;52.202;0.154;2022-07-01T14:50:41;3.83;;;1.10;;
70406;SDS011;57821;52.202;0.154;2022-07-01T14:53:08;5.13;;;0.90;;
70406;SDS011;57821;52.202;0.154;2022-07-01T14:55:35;4.78;;;1.20;;
70406;SDS011;57821;52.202;0.154;2022-07-01T14:58:02;8.07;;;1.10;;